Time;durP1;ratioP1;P1;durP2;ratioP2;P2;SDS_P1;SDS_P2;PMS_P1;PMS_P2;Temp;Humidity;BMP_temperature;BMP_pressure;BME280_temperature;BME280_humidity;BME280_pressure;Samples;Min_cycle;Max_cycle;Signal;HPM_P1;HPM_P2
2021/07/29 00:00:40;;;;;;;3.78;2.10;;;15.90;94.10;;;;;;5075482;28;20060;-64
2021/07/29 00:03:06;;;;;;;5.53;1.80;;;16.00;94.10;;;;;;5074381;28;20040;-64
2021/07/29 00:05:37;;;;;;;4.32;1.73;;;16.00;94.00;;;;;;5057028;28;20055;-64
2021/07/29 00:08:04;;;;;;;4.07;1.73;;;16.00;94.00;;;;;;5076959;28;20012;-64
2021/07/29 00:10:30;;;;;;;4.05;1.75;;;16.00;93.90;;;;;;5078860;28;20086;-64
2021/07/29 00:12:56;;;;;;;2.97;1.30;;;16.00;93.90;;;;;;5074379;28;20031;-64
2021/07/29 00:15:22;;;;;;;3.53;1.60;;;16.00;93.90;;;;;;5072850;28;20021;-64
2021/07/29 00:20:17;;;;;;;5.30;2.10;;;16.00;93.90;;;;;;5076292;28;20029;-64
2021/07/29 00:22:44;;;;;;;5.13;2.40;;;15.90;93.90;;;;;;5062438;28;20020;-64
2021/07/29 00:25:13;;;;;;;5.22;1.67;;;15.90;93.90;;;;;;5067126;28;20032;-64
2021/07/29 00:27:40;;;;;;;2.83;1.58;;;15.90;94.00;;;;;;5075632;28;20023;-64
2021/07/29 00:30:06;;;;;;;5.43;1.75;;;15.90;94.00;;;;;;5074007;28;20025;-64
2021/07/29 00:32:32;;;;;;;4.55;1.65;;;15.80;94.10;;;;;;5074193;28;20021;-65
2021/07/29 00:34:57;;;;;;;2.97;1.85;;;15.80;94.10;;;;;;5076122;28;20020;-64
2021/07/29 00:37:23;;;;;;;5.18;1.67;;;15.80;94.10;;;;;;5057935;28;20032;-64
2021/07/29 00:39:49;;;;;;;3.22;1.67;;;15.80;94.00;;;;;;5069968;28;20089;-64
2021/07/29 00:42:14;;;;;;;3.42;1.40;;;15.80;93.90;;;;;;5072032;28;20098;-64
2021/07/29 00:44:40;;;;;;;4.55;1.67;;;15.80;93.80;;;;;;5074927;28;20020;-64
2021/07/29 00:47:06;;;;;;;8.35;1.48;;;15.80;93.80;;;;;;5073559;28;20044;-65
2021/07/29 00:49:33;;;;;;;4.97;1.48;;;15.80;93.70;;;;;;5073588;28;20469;-65
2021/07/29 00:51:59;;;;;;;4.95;1.40;;;15.90;93.70;;;;;;5076442;28;20467;-64
2021/07/29 00:54:28;;;;;;;4.32;1.75;;;15.90;93.70;;;;;;5075439;28;20019;-65
2021/07/29 00:56:54;;;;;;;2.95;1.27;;;15.90;93.90;;;;;;5069992;28;20020;-64
2021/07/29 00:59:20;;;;;;;4.53;1.50;;;15.80;93.60;;;;;;5074397;28;20020;-64
2021/07/29 01:01:45;;;;;;;3.97;1.90;;;15.80;93.70;;;;;;5055779;28;20456;-65
2021/07/29 01:04:11;;;;;;;3.55;1.40;;;15.90;93.70;;;;;;5076370;28;20024;-64
2021/07/29 01:06:36;;;;;;;5.10;1.70;;;15.90;93.60;;;;;;5072928;28;20476;-64
2021/07/29 01:09:08;;;;;;;5.43;1.10;;;15.90;93.60;;;;;;5075426;28;20021;-64
2021/07/29 01:11:34;;;;;;;4.95;1.98;;;15.90;93.60;;;;;;5057128;28;20013;-64
2021/07/29 01:13:59;;;;;;;4.85;1.40;;;15.80;93.70;;;;;;5076238;28;20485;-65
2021/07/29 01:16:25;;;;;;;3.72;1.73;;;15.80;93.70;;;;;;5072817;28;20028;-64
2021/07/29 01:18:50;;;;;;;4.82;1.38;;;15.80;93.80;;;;;;5075287;28;20020;-64
2021/07/29 01:21:16;;;;;;;6.38;2.08;;;15.80;93.80;;;;;;5076669;28;20447;-64
2021/07/29 01:23:41;;;;;;;3.95;1.25;;;15.80;93.90;;;;;;5059767;28;20040;-64
2021/07/29 01:26:07;;;;;;;6.47;1.50;;;15.80;93.90;;;;;;5074879;28;20049;-64
2021/07/29 01:28:32;;;;;;;5.70;1.42;;;15.80;93.80;;;;;;5073137;28;20024;-64
2021/07/29 01:30:58;;;;;;;6.28;1.40;;;15.80;93.90;;;;;;5075672;28;20013;-64
2021/07/29 01:33:23;;;;;;;3.10;1.30;;;15.80;93.80;;;;;;5071284;28;20382;-64
2021/07/29 01:35:49;;;;;;;5.15;1.13;;;15.80;93.90;;;;;;5071219;28;20066;-65
2021/07/29 01:38:14;;;;;;;5.05;1.67;;;15.80;93.80;;;;;;5074737;28;20659;-64
2021/07/29 01:40:40;;;;;;;5.05;1.38;;;15.80;93.80;;;;;;5077631;28;20028;-64
2021/07/29 01:43:05;;;;;;;3.45;1.23;;;15.80;93.80;;;;;;5061135;28;20024;-64
2021/07/29 01:45:31;;;;;;;4.45;1.35;;;15.80;93.70;;;;;;5073028;28;20119;-64
2021/07/29 01:47:57;;;;;;;4.72;1.42;;;15.80;93.70;;;;;;5073635;28;20032;-64
2021/07/29 01:50:22;;;;;;;5.20;1.40;;;15.80;93.70;;;;;;5072370;28;20103;-64
2021/07/29 01:52:48;;;;;;;7.70;1.50;;;15.80;93.70;;;;;;5074785;28;20466;-64
2021/07/29 01:55:14;;;;;;;3.67;1.25;;;15.80;93.70;;;;;;5073992;28;21321;-64
2021/07/29 01:57:39;;;;;;;6.38;1.42;;;15.80;93.70;;;;;;5061424;28;20048;-64
2021/07/29 02:00:06;;;;;;;5.07;1.58;;;15.80;93.70;;;;;;5074588;28;20521;-64
2021/07/29 02:02:32;;;;;;;3.22;1.20;;;15.80;93.70;;;;;;5072971;28;20417;-64
2021/07/29 02:04:57;;;;;;;5.20;1.40;;;15.80;93.70;;;;;;5073253;28;20021;-64
2021/07/29 02:07:23;;;;;;;2.97;1.20;;;15.80;93.70;;;;;;5072170;28;20029;-64
2021/07/29 02:09:48;;;;;;;6.97;1.33;;;15.80;93.70;;;;;;5074649;28;20474;-64
2021/07/29 02:12:14;;;;;;;4.95;1.40;;;15.70;93.70;;;;;;5074908;28;20031;-64
2021/07/29 02:14:39;;;;;;;5.90;1.52;;;15.70;93.70;;;;;;5075051;28;20020;-64
2021/07/29 02:17:05;;;;;;;5.72;1.50;;;15.70;93.70;;;;;;5072012;28;20036;-64
2021/07/29 02:19:32;;;;;;;6.20;1.40;;;15.70;93.70;;;;;;5077020;28;20028;-64
2021/07/29 02:21:58;;;;;;;5.68;1.48;;;15.70;93.80;;;;;;5064974;28;20024;-64
2021/07/29 02:24:23;;;;;;;8.07;1.90;;;15.70;93.80;;;;;;5071777;28;20028;-64
2021/07/29 02:26:49;;;;;;;4.55;1.60;;;15.60;93.80;;;;;;5065512;28;20029;-64
2021/07/29 02:29:14;;;;;;;7.90;1.92;;;15.60;93.80;;;;;;5070937;28;20501;-64
2021/07/29 02:31:40;;;;;;;6.45;1.35;;;15.60;93.90;;;;;;5074503;28;20677;-64
2021/07/29 02:34:06;;;;;;;6.78;1.75;;;15.60;93.90;;;;;;5071581;28;20073;-64
2021/07/29 02:36:31;;;;;;;4.88;1.70;;;15.60;93.90;;;;;;5073611;28;20020;-64
2021/07/29 02:38:57;;;;;;;6.15;2.33;;;15.60;94.00;;;;;;5066364;28;20017;-64
2021/07/29 02:41:22;;;;;;;10.57;2.10;;;15.60;94.00;;;;;;5074707;28;20482;-64
2021/07/29 02:43:48;;;;;;;5.90;1.35;;;15.50;94.00;;;;;;5072714;28;20027;-64
2021/07/29 02:46:13;;;;;;;5.35;1.58;;;15.50;94.00;;;;;;5072829;28;20546;-64
2021/07/29 02:48:39;;;;;;;3.97;1.30;;;15.50;94.00;;;;;;5071679;28;20022;-64
2021/07/29 02:51:05;;;;;;;9.55;1.95;;;15.50;94.00;;;;;;5071747;28;20016;-64
2021/07/29 02:53:34;;;;;;;7.05;1.48;;;15.50;94.10;;;;;;5077196;28;20016;-64
2021/07/29 02:56:00;;;;;;;11.88;2.03;;;15.50;94.10;;;;;;5071210;28;20067;-65
2021/07/29 02:58:26;;;;;;;3.90;1.90;;;15.50;94.20;;;;;;5078768;28;20482;-64
2021/07/29 03:00:52;;;;;;;5.93;1.45;;;15.40;94.20;;;;;;5076414;28;20020;-65
2021/07/29 03:03:18;;;;;;;6.47;1.30;;;15.40;94.30;;;;;;5076922;28;20028;-64
2021/07/29 03:05:43;;;;;;;5.32;1.65;;;15.40;94.30;;;;;;5075686;28;20469;-64
2021/07/29 03:08:09;;;;;;;6.05;1.67;;;15.40;94.30;;;;;;5075423;28;20043;-64
2021/07/29 03:10:35;;;;;;;7.72;1.60;;;15.40;94.40;;;;;;5077382;28;20025;-64
2021/07/29 03:13:01;;;;;;;6.82;1.85;;;15.40;94.40;;;;;;5073673;28;20028;-64
2021/07/29 03:15:30;;;;;;;9.73;1.65;;;15.50;94.50;;;;;;5075680;28;20485;-64
2021/07/29 03:17:56;;;;;;;5.03;1.52;;;15.50;94.50;;;;;;5074957;28;20029;-64
2021/07/29 03:20:21;;;;;;;2.75;1.63;;;15.50;94.50;;;;;;5077546;28;20024;-64
2021/07/29 03:22:47;;;;;;;7.30;2.08;;;15.50;94.50;;;;;;5072293;28;20473;-64
2021/07/29 03:25:12;;;;;;;6.05;1.45;;;15.50;94.50;;;;;;5058914;28;20036;-64
2021/07/29 03:27:38;;;;;;;6.47;1.67;;;15.50;94.50;;;;;;5079871;28;20024;-64
2021/07/29 03:30:04;;;;;;;5.93;2.00;;;15.50;94.50;;;;;;5075407;28;20021;-64
2021/07/29 03:32:30;;;;;;;6.03;2.10;;;15.50;94.50;;;;;;5075200;28;20047;-64
2021/07/29 03:34:55;;;;;;;4.38;1.38;;;15.50;94.50;;;;;;5074790;28;20064;-64
2021/07/29 03:37:21;;;;;;;5.63;1.58;;;15.50;94.50;;;;;;5077345;28;20385;-64
2021/07/29 03:39:46;;;;;;;4.63;1.88;;;15.50;94.50;;;;;;5072140;28;20054;-64
2021/07/29 03:42:12;;;;;;;5.60;1.60;;;15.50;94.60;;;;;;5076041;28;20036;-65
2021/07/29 03:44:37;;;;;;;5.20;1.38;;;15.50;94.60;;;;;;5076891;28;20043;-64
2021/07/29 03:47:03;;;;;;;6.90;1.75;;;15.50;94.60;;;;;;5075556;28;20044;-64
2021/07/29 03:49:28;;;;;;;7.00;1.73;;;15.50;94.70;;;;;;5077893;28;20017;-65
2021/07/29 03:51:54;;;;;;;7.72;1.60;;;15.50;94.70;;;;;;5058757;28;20031;-64
2021/07/29 03:54:20;;;;;;;5.93;1.45;;;15.50;94.70;;;;;;5076854;28;20108;-64
2021/07/29 03:56:45;;;;;;;8.73;1.92;;;15.50;94.70;;;;;;5071695;28;20020;-64
2021/07/29 03:59:11;;;;;;;7.45;2.95;;;15.50;94.80;;;;;;5076002;28;20032;-64
2021/07/29 04:01:36;;;;;;;4.88;1.70;;;15.50;94.90;;;;;;5076530;28;20027;-64
2021/07/29 04:04:02;;;;;;;4.32;1.63;;;15.40;94.90;;;;;;5074416;28;20017;-64
2021/07/29 04:06:27;;;;;;;5.45;1.67;;;15.40;94.90;;;;;;5074796;28;20024;-64
2021/07/29 04:08:53;;;;;;;7.22;2.33;;;15.40;95.00;;;;;;5074204;28;20024;-64
2021/07/29 04:11:18;;;;;;;10.57;2.08;;;15.40;95.10;;;;;;5076187;28;20052;-64
2021/07/29 04:13:44;;;;;;;7.40;2.25;;;15.40;95.30;;;;;;5074904;28;20028;-64
2021/07/29 04:16:09;;;;;;;6.50;2.17;;;15.40;95.30;;;;;;5074957;28;20028;-65
2021/07/29 04:18:36;;;;;;;7.40;2.67;;;15.40;95.40;;;;;;5074068;28;20093;-64
2021/07/29 04:21:02;;;;;;;8.10;2.55;;;15.40;95.40;;;;;;5077837;28;20027;-64
2021/07/29 04:23:27;;;;;;;6.95;1.73;;;15.40;95.50;;;;;;5052105;28;20413;-64
2021/07/29 04:25:53;;;;;;;6.05;1.95;;;15.40;95.40;;;;;;5058226;28;20021;-64
2021/07/29 04:28:18;;;;;;;9.65;2.25;;;15.40;95.40;;;;;;5056611;28;20025;-64
2021/07/29 04:30:44;;;;;;;3.58;1.65;;;15.40;95.40;;;;;;5074302;28;20031;-64
2021/07/29 04:33:10;;;;;;;5.82;2.00;;;15.50;95.40;;;;;;5073974;28;20099;-64
2021/07/29 04:35:38;;;;;;;6.40;1.90;;;15.50;95.40;;;;;;5056071;28;20025;-64
2021/07/29 04:38:04;;;;;;;7.72;2.08;;;15.40;95.40;;;;;;5059366;28;20024;-64
2021/07/29 04:40:29;;;;;;;8.48;2.75;;;15.50;95.40;;;;;;5069870;28;20070;-64
2021/07/29 04:42:55;;;;;;;6.47;2.38;;;15.50;95.40;;;;;;5076430;28;20031;-64
2021/07/29 04:45:57;;;;;;;;;;;;;;;;;;;;;
2021/07/29 04:48:12;;;;;;;6.28;1.70;;;15.50;95.40;;;;;;5069735;28;20544;-64
2021/07/29 04:50:37;;;;;;;10.07;2.08;;;15.60;95.50;;;;;;5073535;28;20040;-64
2021/07/29 04:53:02;;;;;;;3.83;1.35;;;15.60;95.40;;;;;;5076062;28;20029;-64
2021/07/29 04:55:28;;;;;;;7.22;2.25;;;15.60;95.40;;;;;;5072955;28;20478;-64
2021/07/29 04:57:53;;;;;;;7.90;2.00;;;15.70;95.40;;;;;;5073042;28;20059;-64
2021/07/29 05:00:19;;;;;;;10.40;2.30;;;15.60;95.40;;;;;;5076153;28;20520;-64
2021/07/29 05:02:44;;;;;;;7.15;1.85;;;15.70;95.40;;;;;;5074203;28;20485;-64
2021/07/29 05:05:10;;;;;;;8.38;2.13;;;15.70;95.40;;;;;;5056431;28;20169;-64
2021/07/29 05:07:36;;;;;;;7.07;1.70;;;15.70;95.30;;;;;;5073157;28;20029;-64
2021/07/29 05:10:02;;;;;;;7.78;1.73;;;15.80;95.30;;;;;;5058583;28;20085;-64
2021/07/29 05:12:27;;;;;;;6.05;1.80;;;15.70;95.30;;;;;;5076772;28;20027;-64
2021/07/29 05:14:56;;;;;;;5.20;1.63;;;15.80;95.30;;;;;;5100292;28;20488;-64
2021/07/29 05:17:23;;;;;;;9.00;1.70;;;15.80;95.30;;;;;;5092748;28;20081;-65
2021/07/29 05:19:48;;;;;;;8.10;2.03;;;15.80;95.20;;;;;;5093659;28;20036;-65
2021/07/29 05:22:15;;;;;;;10.32;2.50;;;15.90;95.20;;;;;;5075225;28;20072;-64
2021/07/29 05:24:51;;;;;;;5.97;2.03;;;15.90;95.10;;;;;;5093731;28;20024;-64
2021/07/29 05:27:16;;;;;;;8.70;2.00;;;15.90;95.10;;;;;;5075383;28;20028;-65
2021/07/29 05:29:42;;;;;;;3.85;1.73;;;15.90;95.00;;;;;;5093844;28;20031;-65
2021/07/29 05:32:08;;;;;;;5.57;1.60;;;15.90;95.00;;;;;;5093272;28;20482;-65
2021/07/29 05:34:33;;;;;;;7.60;3.25;;;16.00;95.00;;;;;;5093269;28;20095;-65
2021/07/29 05:37:09;;;;;;;8.93;2.30;;;16.00;94.90;;;;;;5093312;28;20150;-64
2021/07/29 05:39:35;;;;;;;8.23;1.85;;;16.00;95.00;;;;;;5075260;28;20469;-65
2021/07/29 05:42:01;;;;;;;6.53;2.03;;;16.00;94.90;;;;;;5093061;28;20093;-64
2021/07/29 05:44:27;;;;;;;6.47;2.30;;;16.00;95.00;;;;;;5093330;28;20019;-64
2021/07/29 05:46:53;;;;;;;6.72;2.38;;;16.00;95.00;;;;;;5091107;28;20490;-65
2021/07/29 05:49:18;;;;;;;5.10;1.88;;;16.00;94.90;;;;;;5070104;28;20047;-64
2021/07/29 05:51:44;;;;;;;11.57;2.42;;;16.10;95.00;;;;;;5074220;28;20031;-64
2021/07/29 05:54:09;;;;;;;7.88;2.25;;;16.10;94.90;;;;;;5072367;28;20043;-64
2021/07/29 05:56:35;;;;;;;9.38;2.40;;;16.10;94.90;;;;;;5067256;28;20478;-64
2021/07/29 05:59:00;;;;;;;9.73;2.40;;;16.20;94.90;;;;;;5074685;28;20040;-64
2021/07/29 06:01:26;;;;;;;11.50;2.60;;;16.20;94.80;;;;;;5093013;28;20032;-65
2021/07/29 06:03:51;;;;;;;5.95;2.85;;;16.20;94.70;;;;;;5074789;28;20058;-65
2021/07/29 06:06:17;;;;;;;10.77;3.00;;;16.20;94.70;;;;;;5074683;28;20027;-64
2021/07/29 06:08:43;;;;;;;8.55;3.03;;;16.20;94.60;;;;;;5092944;28;20024;-64
2021/07/29 06:11:09;;;;;;;10.63;2.38;;;16.20;94.60;;;;;;5086127;28;20016;-65
2021/07/29 06:13:35;;;;;;;11.23;2.10;;;16.20;94.60;;;;;;5092948;28;20088;-64
2021/07/29 06:16:02;;;;;;;12.88;3.13;;;16.20;94.60;;;;;;5092813;28;20023;-65
2021/07/29 06:18:28;;;;;;;12.63;3.00;;;16.20;94.60;;;;;;5093302;28;20027;-64
2021/07/29 06:20:53;;;;;;;11.77;3.28;;;16.30;94.60;;;;;;5092081;28;20046;-65
2021/07/29 06:23:19;;;;;;;12.68;2.58;;;16.30;94.60;;;;;;5074445;28;20032;-64
2021/07/29 06:25:44;;;;;;;8.63;2.50;;;16.40;94.60;;;;;;5092683;28;20549;-64
2021/07/29 06:28:13;;;;;;;11.18;2.65;;;16.50;94.80;;;;;;5092386;28;20032;-64
2021/07/29 06:30:41;;;;;;;9.33;1.93;;;16.50;94.30;;;;;;5092519;28;20024;-65
2021/07/29 06:33:41;;;;;;;8.68;2.10;;;16.50;94.20;;;;;;5092532;28;20082;-64
2021/07/29 06:36:07;;;;;;;7.25;2.22;;;16.60;94.00;;;;;;5092311;28;20078;-65
2021/07/29 06:38:33;;;;;;;7.97;2.10;;;16.60;94.00;;;;;;5072726;28;20032;-64
2021/07/29 06:40:59;;;;;;;11.43;2.53;;;16.70;93.80;;;;;;5076285;28;20037;-64
2021/07/29 06:43:24;;;;;;;8.85;2.45;;;16.70;93.70;;;;;;5075818;28;20029;-64
2021/07/29 06:45:50;;;;;;;12.38;2.45;;;16.70;93.60;;;;;;5086734;28;20537;-64
2021/07/29 06:48:17;;;;;;;7.88;1.92;;;16.70;93.60;;;;;;5091466;28;20468;-64
2021/07/29 06:50:43;;;;;;;9.10;2.33;;;16.70;93.50;;;;;;5091354;28;20544;-65
2021/07/29 06:53:14;;;;;;;9.52;2.28;;;16.80;93.40;;;;;;5081232;28;20056;-64
2021/07/29 06:55:40;;;;;;;9.40;2.13;;;16.90;93.30;;;;;;5080525;28;20016;-65
2021/07/29 06:58:05;;;;;;;8.25;2.00;;;17.00;93.30;;;;;;5081849;28;20073;-64
2021/07/29 07:00:31;;;;;;;12.23;2.47;;;17.00;93.20;;;;;;5070994;28;20540;-65
2021/07/29 07:02:56;;;;;;;10.02;2.20;;;17.00;92.80;;;;;;5064292;28;20029;-65
2021/07/29 07:05:22;;;;;;;9.63;2.70;;;17.00;92.80;;;;;;5092342;28;20077;-64
2021/07/29 07:07:47;;;;;;;7.63;1.92;;;17.00;92.80;;;;;;5090942;28;20047;-66
2021/07/29 07:10:13;;;;;;;9.40;2.25;;;17.10;92.80;;;;;;5092246;28;20039;-65
2021/07/29 07:12:38;;;;;;;9.15;2.15;;;17.10;92.60;;;;;;5055276;28;20028;-65
2021/07/29 07:15:04;;;;;;;8.38;2.42;;;17.20;92.50;;;;;;5068532;28;20084;-65
2021/07/29 07:17:30;;;;;;;9.68;3.08;;;17.30;92.50;;;;;;5059725;28;20062;-65
2021/07/29 07:19:59;;;;;;;7.05;2.40;;;17.30;92.30;;;;;;5071849;28;20454;-65
2021/07/29 07:22:25;;;;;;;10.15;2.00;;;17.40;92.20;;;;;;5091651;28;20481;-65
2021/07/29 07:24:51;;;;;;;8.43;2.00;;;17.50;91.90;;;;;;5091975;28;20145;-65
2021/07/29 07:27:16;;;;;;;9.63;2.50;;;17.50;91.70;;;;;;5091967;28;20044;-65
2021/07/29 07:29:42;;;;;;;9.48;2.40;;;17.60;91.60;;;;;;5073940;28;20012;-65
2021/07/29 07:32:07;;;;;;;9.52;2.42;;;17.70;91.50;;;;;;5040840;28;20401;-65
2021/07/29 07:34:33;;;;;;;8.75;2.30;;;17.80;91.40;;;;;;5037428;28;20103;-65
2021/07/29 07:36:59;;;;;;;8.23;2.00;;;17.80;91.00;;;;;;5059612;28;20032;-65
2021/07/29 07:39:25;;;;;;;11.20;2.03;;;17.90;90.80;;;;;;5092818;28;20038;-65
2021/07/29 07:41:51;;;;;;;8.85;2.28;;;18.00;90.60;;;;;;5090632;28;20027;-65
2021/07/29 07:44:17;;;;;;;7.13;1.85;;;18.00;90.30;;;;;;5095084;28;20028;-64
2021/07/29 07:46:42;;;;;;;12.30;2.47;;;18.00;89.40;;;;;;5094972;28;20509;-65
2021/07/29 07:49:52;;;;;;;6.97;2.20;;;18.00;88.90;;;;;;5086975;28;20031;-66
2021/07/29 07:52:18;;;;;;;8.15;1.90;;;18.10;88.10;;;;;;5087859;28;20016;-65
2021/07/29 07:54:43;;;;;;;8.65;2.33;;;18.00;88.90;;;;;;5091519;28;20024;-66
2021/07/29 07:57:09;;;;;;;8.77;3.00;;;18.10;88.80;;;;;;5077064;28;20024;-65
2021/07/29 07:59:46;;;;;;;6.63;1.90;;;18.10;88.00;;;;;;5095309;28;20102;-65
2021/07/29 08:02:12;;;;;;;8.38;2.03;;;18.20;88.00;;;;;;5095001;28;20060;-66
2021/07/29 08:04:38;;;;;;;8.73;2.00;;;18.30;87.80;;;;;;5094945;28;20381;-65
2021/07/29 08:07:05;;;;;;;8.38;2.28;;;18.30;87.70;;;;;;5095016;28;20517;-66
2021/07/29 08:09:30;;;;;;;7.28;2.22;;;18.40;87.30;;;;;;5094854;28;20036;-65
2021/07/29 08:11:56;;;;;;;9.57;2.33;;;18.40;86.40;;;;;;5072707;28;20052;-65
2021/07/29 08:14:21;;;;;;;7.07;1.70;;;18.50;85.80;;;;;;5067226;28;20045;-65
2021/07/29 08:16:47;;;;;;;6.75;2.20;;;18.50;84.70;;;;;;5067868;28;20424;-65
2021/07/29 08:19:12;;;;;;;8.40;2.22;;;18.50;84.70;;;;;;5094425;28;20103;-65
2021/07/29 08:21:39;;;;;;;11.10;2.58;;;18.60;84.60;;;;;;5070657;28;20466;-65
2021/07/29 08:24:15;;;;;;;8.55;2.28;;;18.70;83.60;;;;;;5093360;28;20020;-65
2021/07/29 08:26:41;;;;;;;6.70;1.63;;;18.70;82.00;;;;;;5093706;28;20016;-64
2021/07/29 08:29:06;;;;;;;5.25;1.63;;;18.80;81.90;;;;;;5093879;28;20043;-65
2021/07/29 08:31:32;;;;;;;8.60;1.63;;;18.80;82.10;;;;;;5094016;28;20441;-65
2021/07/29 08:33:57;;;;;;;6.38;1.63;;;18.90;82.00;;;;;;5093471;28;20066;-64
2021/07/29 08:36:23;;;;;;;7.03;1.80;;;18.90;81.60;;;;;;5094102;28;20028;-64
2021/07/29 08:38:49;;;;;;;6.95;1.48;;;19.00;82.20;;;;;;5093407;28;20157;-64
2021/07/29 08:41:16;;;;;;;10.32;2.13;;;19.10;80.90;;;;;;5093192;28;20028;-64
2021/07/29 08:43:42;;;;;;;7.50;1.60;;;19.00;79.70;;;;;;5075794;28;20031;-65
2021/07/29 08:46:09;;;;;;;5.32;1.67;;;19.00;79.80;;;;;;5093860;28;20032;-65
2021/07/29 08:48:36;;;;;;;5.18;1.25;;;19.10;78.80;;;;;;5075641;28;20060;-66
2021/07/29 08:51:03;;;;;;;4.80;1.40;;;19.10;79.00;;;;;;5093783;28;20016;-65
2021/07/29 08:53:28;;;;;;;6.57;1.45;;;19.30;79.50;;;;;;5093406;28;20040;-65
2021/07/29 08:55:55;;;;;;;5.53;1.90;;;19.40;79.60;;;;;;5093771;28;20036;-66
2021/07/29 08:58:21;;;;;;;7.10;2.10;;;19.30;78.50;;;;;;5085658;28;20619;-65
2021/07/29 09:01:13;;;;;;;8.85;1.73;;;19.40;78.80;;;;;;5084996;28;20051;-66
2021/07/29 09:03:41;;;;;;;7.60;2.05;;;19.40;78.00;;;;;;5073114;28;20025;-65
2021/07/29 09:06:12;;;;;;;6.80;1.60;;;19.40;78.80;;;;;;5089568;28;20020;-65
2021/07/29 09:08:47;;;;;;;6.30;1.60;;;19.50;77.60;;;;;;5092741;28;20107;-65
2021/07/29 09:11:36;;;;;;;5.68;1.60;;;19.70;77.60;;;;;;5092830;28;20032;-65
2021/07/29 09:14:14;;;;;;;6.28;1.10;;;19.70;76.20;;;;;;5075083;28;20024;-65
2021/07/29 09:16:57;;;;;;;6.82;1.70;;;19.80;76.50;;;;;;5092458;28;20016;-65
2021/07/29 09:19:58;;;;;;;6.80;1.38;;;19.70;76.50;;;;;;5092815;28;20421;-65
2021/07/29 09:22:29;;;;;;;7.60;1.70;;;19.80;76.60;;;;;;5058339;28;20135;-65
2021/07/29 09:25:04;;;;;;;9.40;2.22;;;19.70;74.70;;;;;;5092239;28;20024;-65
2021/07/29 09:27:42;;;;;;;7.13;1.60;;;19.80;74.20;;;;;;5074977;28;20020;-65
2021/07/29 09:30:21;;;;;;;5.72;1.67;;;19.80;73.80;;;;;;5093153;28;20116;-65
2021/07/29 09:33:10;;;;;;;8.27;1.77;;;19.90;74.50;;;;;;5092659;28;20099;-66
2021/07/29 09:35:38;;;;;;;5.95;1.58;;;19.90;73.80;;;;;;5092467;28;20043;-66
2021/07/29 09:38:24;;;;;;;5.43;1.23;;;19.90;73.90;;;;;;5075750;28;20139;-65
2021/07/29 09:40:53;;;;;;;3.85;1.08;;;19.90;74.30;;;;;;5080287;28;20089;-66
2021/07/29 09:43:23;;;;;;;4.77;1.80;;;19.90;74.50;;;;;;5092940;28;20034;-66
2021/07/29 09:45:54;;;;;;;7.88;1.98;;;20.10;74.80;;;;;;5075701;28;20024;-66
2021/07/29 09:48:22;;;;;;;10.65;1.63;;;20.20;73.90;;;;;;5066056;28;20472;-66
2021/07/29 09:50:49;;;;;;;5.63;1.42;;;20.10;71.50;;;;;;5072890;28;20100;-66
2021/07/29 09:53:15;;;;;;;4.50;1.35;;;20.10;70.90;;;;;;5063690;28;20024;-66
2021/07/29 09:55:41;;;;;;;3.85;1.10;;;20.10;71.50;;;;;;5087629;28;20032;-66
2021/07/29 09:58:06;;;;;;;6.90;1.70;;;20.10;70.60;;;;;;5073803;28;20043;-66
2021/07/29 10:00:37;;;;;;;10.45;2.40;;;20.10;70.60;;;;;;5092200;28;20048;-66
2021/07/29 10:03:05;;;;;;;3.17;1.13;;;20.10;70.40;;;;;;5084113;28;21465;-66
2021/07/29 10:05:59;;;;;;;4.78;1.48;;;20.10;70.60;;;;;;5076670;28;20023;-66
2021/07/29 10:08:33;;;;;;;3.97;1.33;;;20.30;70.50;;;;;;5083395;28;20123;-66
2021/07/29 10:11:00;;;;;;;5.05;1.25;;;20.40;69.60;;;;;;5092617;28;20008;-66
2021/07/29 10:13:53;;;;;;;5.60;1.45;;;20.50;68.60;;;;;;5074463;28;20023;-66
2021/07/29 10:16:50;;;;;;;6.28;1.95;;;20.70;68.50;;;;;;5070900;28;20037;-66
2021/07/29 10:19:16;;;;;;;8.02;1.75;;;20.80;68.50;;;;;;5092446;28;20103;-66
2021/07/29 10:21:44;;;;;;;8.90;1.65;;;20.80;67.30;;;;;;5074557;28;20106;-67
2021/07/29 10:24:10;;;;;;;6.72;1.40;;;20.80;68.30;;;;;;5083258;28;20044;-66
2021/07/29 10:26:58;;;;;;;6.53;1.40;;;20.80;68.70;;;;;;5090962;28;20023;-66
2021/07/29 10:29:27;;;;;;;5.97;1.70;;;20.80;69.20;;;;;;5081763;28;20453;-66
2021/07/29 10:31:57;;;;;;;6.40;2.00;;;20.60;68.00;;;;;;5083723;28;20024;-66
2021/07/29 10:34:33;;;;;;;4.03;1.20;;;20.40;67.60;;;;;;5069841;28;20580;-66
2021/07/29 10:37:06;;;;;;;6.43;1.65;;;20.40;68.20;;;;;;5090654;28;20492;-66
2021/07/29 10:39:58;;;;;;;6.50;1.15;;;20.30;69.30;;;;;;5070318;28;20025;-67
2021/07/29 10:42:28;;;;;;;5.40;1.73;;;20.40;68.90;;;;;;5084672;28;20012;-66
2021/07/29 10:44:54;;;;;;;3.53;1.40;;;20.50;69.90;;;;;;5091184;28;20538;-67
2021/07/29 10:47:37;;;;;;;6.20;2.10;;;20.80;70.70;;;;;;5068537;28;20040;-66
2021/07/29 10:50:03;;;;;;;6.82;1.90;;;21.10;69.60;;;;;;5091182;28;20020;-67
2021/07/29 10:52:29;;;;;;;6.40;1.85;;;21.20;69.40;;;;;;5065933;28;20417;-66
2021/07/29 10:54:56;;;;;;;5.47;1.35;;;21.20;68.80;;;;;;5071529;28;20037;-66
2021/07/29 10:57:23;;;;;;;8.27;2.35;;;21.20;68.70;;;;;;5091881;28;20024;-66
2021/07/29 10:59:52;;;;;;;6.13;1.75;;;21.00;68.90;;;;;;5092106;28;20085;-66
2021/07/29 11:02:32;;;;;;;5.43;1.50;;;20.90;69.00;;;;;;5091898;28;20025;-66
2021/07/29 11:05:00;;;;;;;9.02;2.22;;;20.80;69.70;;;;;;5091690;28;20140;-66
2021/07/29 11:07:26;;;;;;;7.47;1.92;;;20.60;70.50;;;;;;5055613;28;20025;-67
2021/07/29 11:10:07;;;;;;;9.30;2.00;;;20.60;70.90;;;;;;5071254;28;20040;-66
2021/07/29 11:12:35;;;;;;;8.57;1.63;;;20.60;70.30;;;;;;5072719;28;20051;-66
2021/07/29 11:15:02;;;;;;;6.47;1.77;;;20.40;69.70;;;;;;5088208;28;20016;-66
2021/07/29 11:17:27;;;;;;;9.57;1.60;;;20.30;69.80;;;;;;5091663;28;20020;-67
2021/07/29 11:19:53;;;;;;;6.80;1.80;;;20.10;69.90;;;;;;5084956;28;20040;-66
2021/07/29 11:22:19;;;;;;;4.07;1.75;;;19.80;73.20;;;;;;5095246;28;20063;-66
2021/07/29 11:24:44;;;;;;;6.00;1.38;;;19.70;74.60;;;;;;5095838;28;20028;-66
2021/07/29 11:27:13;;;;;;;3.97;1.40;;;19.70;75.30;;;;;;5095277;28;20031;-66
2021/07/29 11:29:52;;;;;;;7.15;1.88;;;19.60;75.40;;;;;;5095558;28;20105;-66
2021/07/29 11:32:57;;;;;;;;;;;;;;;;;;;;;
2021/07/29 11:35:37;;;;;;;;;;;;;;;;;;;;;
2021/07/29 11:38:23;;;;;;;7.13;2.20;;;19.70;76.00;;;;;;5095442;28;20022;-66
2021/07/29 11:40:59;;;;;;;5.93;1.50;;;19.60;75.40;;;;;;5081869;28;20511;-66
2021/07/29 11:43:27;;;;;;;8.10;1.30;;;19.70;75.60;;;;;;5074564;28;20021;-66
2021/07/29 11:46:05;;;;;;;7.38;1.60;;;19.80;75.90;;;;;;5074729;28;20021;-66
2021/07/29 11:48:31;;;;;;;7.17;1.47;;;20.10;75.60;;;;;;5061221;28;20032;-66
2021/07/29 11:50:57;;;;;;;6.68;1.60;;;20.40;74.60;;;;;;5074654;28;20342;-66
2021/07/29 11:53:38;;;;;;;6.65;2.42;;;20.50;73.70;;;;;;5074358;28;20497;-66
2021/07/29 11:59:34;;;;;;;6.53;1.65;;;20.70;72.00;;;;;;5060162;28;20086;-66
2021/07/29 12:02:00;;;;;;;4.72;1.40;;;20.90;71.30;;;;;;5071775;28;20482;-66
2021/07/29 12:04:27;;;;;;;6.38;1.90;;;20.90;69.80;;;;;;5074504;28;20109;-65
2021/07/29 12:10:25;;;;;;;5.18;1.42;;;21.30;70.30;;;;;;4954152;28;20028;-66
2021/07/29 12:12:51;;;;;;;6.22;1.45;;;21.50;67.90;;;;;;5083781;28;20036;-67
2021/07/29 12:15:17;;;;;;;9.30;1.83;;;21.60;67.30;;;;;;5076764;28;20107;-66
2021/07/29 12:17:42;;;;;;;7.80;1.90;;;21.70;67.30;;;;;;5093103;28;20028;-66
2021/07/29 12:20:10;;;;;;;6.13;1.92;;;22.00;66.20;;;;;;5060111;28;20024;-66
2021/07/29 12:22:37;;;;;;;7.60;2.00;;;22.20;65.20;;;;;;5094681;28;20028;-66
2021/07/29 12:25:05;;;;;;;9.88;2.78;;;22.30;65.10;;;;;;5076106;28;20085;-66
2021/07/29 12:27:46;;;;;;;9.10;2.38;;;22.40;64.80;;;;;;5094667;28;20028;-67
2021/07/29 12:33:29;;;;;;;7.70;2.63;;;22.80;65.90;;;;;;5056688;28;20070;-67
2021/07/29 12:35:56;;;;;;;6.82;1.92;;;23.00;65.80;;;;;;5094671;28;20023;-66
2021/07/29 12:38:32;;;;;;;8.07;2.38;;;23.10;65.50;;;;;;5076402;28;20028;-66
2021/07/29 12:40:58;;;;;;;10.07;2.70;;;23.30;64.70;;;;;;5057944;28;20024;-66
2021/07/29 12:43:30;;;;;;;5.35;1.63;;;23.30;63.30;;;;;;5073608;28;20111;-67
2021/07/29 12:46:00;;;;;;;7.25;1.92;;;23.20;62.20;;;;;;5073266;28;20032;-66
2021/07/29 12:48:27;;;;;;;6.30;1.65;;;23.20;62.00;;;;;;5056969;28;20071;-66
2021/07/29 12:50:54;;;;;;;8.52;2.75;;;23.20;62.70;;;;;;5055623;28;20032;-66
2021/07/29 12:53:20;;;;;;;6.78;2.05;;;23.30;61.90;;;;;;5075230;28;20024;-66
2021/07/29 12:55:47;;;;;;;6.10;1.98;;;23.30;61.90;;;;;;5055639;28;20016;-66
2021/07/29 12:58:13;;;;;;;6.18;2.05;;;23.40;61.90;;;;;;5073165;28;20032;-66
2021/07/29 13:00:41;;;;;;;6.72;1.88;;;23.40;60.60;;;;;;5075993;28;20036;-66
2021/07/29 13:03:34;;;;;;;7.05;2.00;;;23.50;60.50;;;;;;5073243;28;20111;-66
2021/07/29 13:06:00;;;;;;;7.78;2.65;;;23.70;60.90;;;;;;5073367;28;20013;-66
2021/07/29 13:08:27;;;;;;;8.55;2.35;;;23.90;61.50;;;;;;5073086;28;20027;-66